CheckWX is a tool to help pilots better visualize weather data.  It is not intended as a substitute for an official pre-flight weather briefing.

15:12:08 UTC

KMFE METAR
Mc Allen Miller International Airport
Mc Allen, Texas, USA
Current

7 mins ago

KMFE 261505Z 14016KT 10SM SCT023 OVC034 30/23 A3000 RMK AO2 T03000233
Observed
May-26 @ 15:05 UTC
Wind
  • 140° at 16 KTS
Visibility
10 SM
Flight Rules
VFR
Cloud Levels
  • Scattered at 2,300' AGL
  • Overcast at 3,400' AGL
Temperature
30°C / 86°F
Dewpoint
23°C / 73°F
Heat Index
34°C / 93°F
Humidity
66%
Altimeter
30" Hg
Pressure
1015.92 hPa
Previous

19 mins ago

KMFE 261453Z 15017G20KT 10SM FEW021 BKN026 OVC036 30/23 A3000 RMK AO2 SLP158 T03000233 53015
Observed
May-26 @ 14:53 UTC
Wind
  • 150° at 17 KTS
  • Gusting to 20 KTS
Visibility
10 SM
Flight Rules
MVFR
Cloud Levels
  • Few at 2,100' AGL
  • Broken at 2,600' AGL
  • Overcast at 3,600' AGL
Temperature
30°C / 86°F
Dewpoint
23°C / 73°F
Heat Index
34°C / 93°F
Humidity
66%
Altimeter
30" Hg
Pressure
1015.92 hPa
Previous

1 hour ago

KMFE 261353Z 12016G22KT 10SM SCT016 BKN021 OVC036 28/23 A2999 RMK AO2 SLP153 T02830233
Observed
May-26 @ 13:53 UTC
Wind
  • 120° at 16 KTS
  • Gusting to 22 KTS
Visibility
10 SM
Flight Rules
MVFR
Cloud Levels
  • Scattered at 1,600' AGL
  • Broken at 2,100' AGL
  • Overcast at 3,600' AGL
Temperature
28°C / 82°F
Dewpoint
23°C / 73°F
Heat Index
31°C / 87°F
Humidity
74%
Altimeter
29.99" Hg
Pressure
1015.62 hPa